sensor_id;sensor_type;location;lat;lon;timestamp;P1;durP1;ratioP1;P2;durP2;ratioP2
21697;SDS011;11010;49.548;11.926;2023-08-06T00:01:04;11.05;;;6.00;;
21697;SDS011;11010;49.548;11.926;2023-08-06T00:03:32;11.30;;;5.50;;
21697;SDS011;11010;49.548;11.926;2023-08-06T00:05:59;11.35;;;5.78;;
21697;SDS011;11010;49.548;11.926;2023-08-06T00:08:26;11.23;;;5.50;;
21697;SDS011;11010;49.548;11.926;2023-08-06T00:10:54;10.43;;;5.10;;
21697;SDS011;11010;49.548;11.926;2023-08-06T00:13:21;8.43;;;3.90;;
21697;SDS011;11010;49.548;11.926;2023-08-06T00:15:49;10.27;;;5.13;;
21697;SDS011;11010;49.548;11.926;2023-08-06T00:18:16;9.77;;;4.68;;
21697;SDS011;11010;49.548;11.926;2023-08-06T00:20:44;9.25;;;4.32;;
21697;SDS011;11010;49.548;11.926;2023-08-06T00:23:11;8.77;;;4.13;;
21697;SDS011;11010;49.548;11.926;2023-08-06T00:25:38;9.88;;;4.65;;
21697;SDS011;11010;49.548;11.926;2023-08-06T00:28:06;12.52;;;4.82;;
21697;SDS011;11010;49.548;11.926;2023-08-06T00:30:33;8.73;;;3.97;;
21697;SDS011;11010;49.548;11.926;2023-08-06T00:33:01;10.18;;;4.40;;
21697;SDS011;11010;49.548;11.926;2023-08-06T00:35:29;11.32;;;4.45;;
21697;SDS011;11010;49.548;11.926;2023-08-06T00:37:56;9.43;;;4.63;;
21697;SDS011;11010;49.548;11.926;2023-08-06T00:40:24;9.82;;;4.70;;
21697;SDS011;11010;49.548;11.926;2023-08-06T00:42:52;10.07;;;4.88;;
21697;SDS011;11010;49.548;11.926;2023-08-06T00:45:19;10.48;;;5.03;;
21697;SDS011;11010;49.548;11.926;2023-08-06T00:47:46;9.43;;;4.47;;
21697;SDS011;11010;49.548;11.926;2023-08-06T00:50:15;9.65;;;4.60;;
21697;SDS011;11010;49.548;11.926;2023-08-06T00:52:43;9.02;;;3.13;;
21697;SDS011;11010;49.548;11.926;2023-08-06T00:55:10;8.07;;;2.92;;
21697;SDS011;11010;49.548;11.926;2023-08-06T00:57:38;7.45;;;2.80;;
21697;SDS011;11010;49.548;11.926;2023-08-06T01:00:05;9.77;;;3.40;;
21697;SDS011;11010;49.548;11.926;2023-08-06T01:02:33;8.88;;;3.13;;
21697;SDS011;11010;49.548;11.926;2023-08-06T01:05:00;9.57;;;2.88;;
21697;SDS011;11010;49.548;11.926;2023-08-06T01:15:38;8.02;;;3.13;;
21697;SDS011;11010;49.548;11.926;2023-08-06T01:17:57;8.02;;;2.40;;
21697;SDS011;11010;49.548;11.926;2023-08-06T01:20:28;8.07;;;3.00;;
21697;SDS011;11010;49.548;11.926;2023-08-06T01:22:56;8.07;;;2.88;;
21697;SDS011;11010;49.548;11.926;2023-08-06T01:25:29;7.82;;;2.80;;
21697;SDS011;11010;49.548;11.926;2023-08-06T01:27:59;8.43;;;2.90;;
21697;SDS011;11010;49.548;11.926;2023-08-06T01:30:30;8.35;;;2.42;;
21697;SDS011;11010;49.548;11.926;2023-08-06T01:33:04;7.85;;;2.47;;
21697;SDS011;11010;49.548;11.926;2023-08-06T01:35:32;6.85;;;2.45;;
21697;SDS011;11010;49.548;11.926;2023-08-06T01:38:01;7.40;;;2.72;;
21697;SDS011;11010;49.548;11.926;2023-08-06T01:40:29;7.85;;;2.90;;
21697;SDS011;11010;49.548;11.926;2023-08-06T01:42:58;9.13;;;2.50;;
21697;SDS011;11010;49.548;11.926;2023-08-06T01:45:25;6.95;;;2.47;;
21697;SDS011;11010;49.548;11.926;2023-08-06T01:47:53;6.80;;;2.30;;
21697;SDS011;11010;49.548;11.926;2023-08-06T01:50:22;8.35;;;2.90;;
21697;SDS011;11010;49.548;11.926;2023-08-06T01:52:51;6.90;;;2.47;;
21697;SDS011;11010;49.548;11.926;2023-08-06T01:55:18;6.93;;;2.25;;
21697;SDS011;11010;49.548;11.926;2023-08-06T01:57:45;7.05;;;2.40;;
21697;SDS011;11010;49.548;11.926;2023-08-06T02:00:13;6.75;;;2.28;;
21697;SDS011;11010;49.548;11.926;2023-08-06T02:02:40;7.30;;;2.20;;
21697;SDS011;11010;49.548;11.926;2023-08-06T02:05:08;7.75;;;2.22;;
21697;SDS011;11010;49.548;11.926;2023-08-06T02:07:38;7.35;;;2.50;;
21697;SDS011;11010;49.548;11.926;2023-08-06T02:10:06;7.55;;;2.50;;
21697;SDS011;11010;49.548;11.926;2023-08-06T02:12:34;7.20;;;2.40;;
21697;SDS011;11010;49.548;11.926;2023-08-06T02:15:01;6.75;;;2.22;;
21697;SDS011;11010;49.548;11.926;2023-08-06T02:17:28;7.75;;;2.33;;
21697;SDS011;11010;49.548;11.926;2023-08-06T02:19:56;8.00;;;2.58;;
21697;SDS011;11010;49.548;11.926;2023-08-06T02:22:23;6.28;;;2.08;;
21697;SDS011;11010;49.548;11.926;2023-08-06T02:24:51;7.30;;;2.70;;
21697;SDS011;11010;49.548;11.926;2023-08-06T02:27:18;8.40;;;2.60;;
21697;SDS011;11010;49.548;11.926;2023-08-06T02:29:46;6.85;;;2.20;;
21697;SDS011;11010;49.548;11.926;2023-08-06T02:32:13;7.65;;;2.20;;
21697;SDS011;11010;49.548;11.926;2023-08-06T02:34:40;6.90;;;2.42;;
21697;SDS011;11010;49.548;11.926;2023-08-06T02:37:08;6.85;;;2.10;;
21697;SDS011;11010;49.548;11.926;2023-08-06T02:39:37;7.70;;;2.17;;
21697;SDS011;11010;49.548;11.926;2023-08-06T02:42:06;6.65;;;2.13;;
21697;SDS011;11010;49.548;11.926;2023-08-06T02:44:35;6.70;;;1.88;;
21697;SDS011;11010;49.548;11.926;2023-08-06T02:47:03;6.97;;;2.28;;
21697;SDS011;11010;49.548;11.926;2023-08-06T02:49:31;6.50;;;2.15;;
21697;SDS011;11010;49.548;11.926;2023-08-06T02:51:59;6.65;;;2.00;;
21697;SDS011;11010;49.548;11.926;2023-08-06T02:54:26;6.93;;;2.15;;
21697;SDS011;11010;49.548;11.926;2023-08-06T02:56:54;6.50;;;1.90;;
21697;SDS011;11010;49.548;11.926;2023-08-06T02:59:26;6.80;;;1.85;;
21697;SDS011;11010;49.548;11.926;2023-08-06T03:02:03;8.25;;;1.80;;
21697;SDS011;11010;49.548;11.926;2023-08-06T03:04:49;6.90;;;1.80;;
21697;SDS011;11010;49.548;11.926;2023-08-06T03:07:20;6.07;;;1.60;;
21697;SDS011;11010;49.548;11.926;2023-08-06T03:09:53;6.22;;;1.80;;
21697;SDS011;11010;49.548;11.926;2023-08-06T03:12:21;5.28;;;1.60;;
21697;SDS011;11010;49.548;11.926;2023-08-06T03:14:48;6.20;;;1.70;;
21697;SDS011;11010;49.548;11.926;2023-08-06T03:17:16;7.15;;;1.90;;
21697;SDS011;11010;49.548;11.926;2023-08-06T03:19:44;6.10;;;1.80;;
21697;SDS011;11010;49.548;11.926;2023-08-06T03:22:12;6.20;;;1.75;;
21697;SDS011;11010;49.548;11.926;2023-08-06T03:24:40;5.05;;;1.55;;
21697;SDS011;11010;49.548;11.926;2023-08-06T03:27:07;5.63;;;1.77;;
21697;SDS011;11010;49.548;11.926;2023-08-06T03:29:37;5.90;;;1.75;;
21697;SDS011;11010;49.548;11.926;2023-08-06T03:32:05;7.35;;;1.60;;
21697;SDS011;11010;49.548;11.926;2023-08-06T03:34:33;5.88;;;1.55;;
21697;SDS011;11010;49.548;11.926;2023-08-06T03:37:01;5.50;;;1.50;;
21697;SDS011;11010;49.548;11.926;2023-08-06T03:39:29;5.35;;;1.65;;
21697;SDS011;11010;49.548;11.926;2023-08-06T03:41:56;8.73;;;2.05;;
21697;SDS011;11010;49.548;11.926;2023-08-06T03:44:25;5.57;;;1.73;;
21697;SDS011;11010;49.548;11.926;2023-08-06T03:46:54;5.43;;;1.80;;
21697;SDS011;11010;49.548;11.926;2023-08-06T03:49:22;6.30;;;1.70;;
21697;SDS011;11010;49.548;11.926;2023-08-06T03:51:49;7.13;;;2.08;;
21697;SDS011;11010;49.548;11.926;2023-08-06T03:54:17;5.88;;;1.67;;
21697;SDS011;11010;49.548;11.926;2023-08-06T03:56:45;5.47;;;1.58;;
21697;SDS011;11010;49.548;11.926;2023-08-06T03:59:12;6.03;;;1.70;;
21697;SDS011;11010;49.548;11.926;2023-08-06T04:01:40;5.38;;;1.52;;
21697;SDS011;11010;49.548;11.926;2023-08-06T04:04:07;6.07;;;1.60;;
21697;SDS011;11010;49.548;11.926;2023-08-06T04:06:35;5.43;;;1.60;;
21697;SDS011;11010;49.548;11.926;2023-08-06T04:09:02;6.38;;;1.50;;
21697;SDS011;11010;49.548;11.926;2023-08-06T04:11:30;5.35;;;1.55;;
21697;SDS011;11010;49.548;11.926;2023-08-06T04:13:57;8.15;;;1.50;;
21697;SDS011;11010;49.548;11.926;2023-08-06T04:16:25;5.53;;;1.65;;
21697;SDS011;11010;49.548;11.926;2023-08-06T04:18:53;6.47;;;1.60;;
21697;SDS011;11010;49.548;11.926;2023-08-06T04:21:22;5.18;;;1.67;;
21697;SDS011;11010;49.548;11.926;2023-08-06T04:23:49;5.82;;;1.60;;
21697;SDS011;11010;49.548;11.926;2023-08-06T04:26:18;6.05;;;1.58;;
21697;SDS011;11010;49.548;11.926;2023-08-06T04:28:45;4.85;;;1.30;;
21697;SDS011;11010;49.548;11.926;2023-08-06T04:31:13;6.18;;;1.60;;
21697;SDS011;11010;49.548;11.926;2023-08-06T04:33:42;5.70;;;1.75;;
21697;SDS011;11010;49.548;11.926;2023-08-06T04:36:12;6.00;;;1.60;;
21697;SDS011;11010;49.548;11.926;2023-08-06T04:38:40;6.30;;;1.70;;
21697;SDS011;11010;49.548;11.926;2023-08-06T04:41:13;5.13;;;1.58;;
21697;SDS011;11010;49.548;11.926;2023-08-06T04:43:41;6.47;;;1.70;;
21697;SDS011;11010;49.548;11.926;2023-08-06T04:46:09;6.35;;;1.70;;
21697;SDS011;11010;49.548;11.926;2023-08-06T04:48:36;5.65;;;1.70;;
21697;SDS011;11010;49.548;11.926;2023-08-06T04:51:03;6.93;;;1.80;;
21697;SDS011;11010;49.548;11.926;2023-08-06T04:53:31;5.28;;;1.52;;
21697;SDS011;11010;49.548;11.926;2023-08-06T04:55:58;5.13;;;1.48;;
21697;SDS011;11010;49.548;11.926;2023-08-06T04:58:26;5.50;;;1.50;;
21697;SDS011;11010;49.548;11.926;2023-08-06T05:00:53;7.00;;;1.65;;
21697;SDS011;11010;49.548;11.926;2023-08-06T05:03:21;5.65;;;1.60;;
21697;SDS011;11010;49.548;11.926;2023-08-06T05:05:48;5.35;;;1.50;;
21697;SDS011;11010;49.548;11.926;2023-08-06T05:08:16;5.70;;;1.63;;
21697;SDS011;11010;49.548;11.926;2023-08-06T05:10:44;5.25;;;1.50;;
21697;SDS011;11010;49.548;11.926;2023-08-06T05:13:12;5.72;;;1.55;;
21697;SDS011;11010;49.548;11.926;2023-08-06T05:15:39;6.03;;;1.52;;
21697;SDS011;11010;49.548;11.926;2023-08-06T05:18:09;5.75;;;1.60;;
21697;SDS011;11010;49.548;11.926;2023-08-06T05:20:36;5.90;;;1.70;;
21697;SDS011;11010;49.548;11.926;2023-08-06T05:23:04;6.50;;;1.70;;
21697;SDS011;11010;49.548;11.926;2023-08-06T05:25:33;5.97;;;1.50;;
21697;SDS011;11010;49.548;11.926;2023-08-06T05:28:02;5.78;;;1.60;;
21697;SDS011;11010;49.548;11.926;2023-08-06T05:30:29;5.50;;;1.60;;
21697;SDS011;11010;49.548;11.926;2023-08-06T05:32:56;9.73;;;1.88;;
21697;SDS011;11010;49.548;11.926;2023-08-06T05:35:24;6.85;;;2.03;;
21697;SDS011;11010;49.548;11.926;2023-08-06T05:37:51;5.63;;;1.55;;
21697;SDS011;11010;49.548;11.926;2023-08-06T05:40:19;5.80;;;1.60;;
21697;SDS011;11010;49.548;11.926;2023-08-06T05:42:46;6.57;;;2.00;;
21697;SDS011;11010;49.548;11.926;2023-08-06T05:45:14;5.43;;;1.70;;
21697;SDS011;11010;49.548;11.926;2023-08-06T05:47:41;6.60;;;1.90;;
21697;SDS011;11010;49.548;11.926;2023-08-06T05:50:09;8.52;;;1.90;;
21697;SDS011;11010;49.548;11.926;2023-08-06T05:52:36;7.45;;;2.10;;
21697;SDS011;11010;49.548;11.926;2023-08-06T05:55:04;7.80;;;2.05;;
21697;SDS011;11010;49.548;11.926;2023-08-06T05:57:31;7.18;;;2.10;;
21697;SDS011;11010;49.548;11.926;2023-08-06T05:59:59;6.13;;;1.90;;
21697;SDS011;11010;49.548;11.926;2023-08-06T06:02:37;6.80;;;2.10;;
21697;SDS011;11010;49.548;11.926;2023-08-06T06:05:05;6.55;;;2.10;;
21697;SDS011;11010;49.548;11.926;2023-08-06T06:07:32;6.28;;;1.75;;
21697;SDS011;11010;49.548;11.926;2023-08-06T06:10:00;6.80;;;2.13;;
21697;SDS011;11010;49.548;11.926;2023-08-06T06:12:27;6.18;;;1.80;;
21697;SDS011;11010;49.548;11.926;2023-08-06T06:14:54;6.15;;;2.00;;
21697;SDS011;11010;49.548;11.926;2023-08-06T06:17:22;7.30;;;2.03;;
21697;SDS011;11010;49.548;11.926;2023-08-06T06:19:49;7.22;;;2.10;;
21697;SDS011;11010;49.548;11.926;2023-08-06T06:22:17;7.40;;;2.15;;
21697;SDS011;11010;49.548;11.926;2023-08-06T06:24:44;6.72;;;2.10;;
21697;SDS011;11010;49.548;11.926;2023-08-06T06:27:11;6.38;;;2.05;;
21697;SDS011;11010;49.548;11.926;2023-08-06T06:29:39;6.82;;;2.20;;
21697;SDS011;11010;49.548;11.926;2023-08-06T06:32:06;7.45;;;2.00;;
21697;SDS011;11010;49.548;11.926;2023-08-06T06:34:34;6.40;;;1.88;;
21697;SDS011;11010;49.548;11.926;2023-08-06T06:37:02;8.02;;;2.33;;
21697;SDS011;11010;49.548;11.926;2023-08-06T06:39:29;7.63;;;2.15;;
21697;SDS011;11010;49.548;11.926;2023-08-06T06:41:57;6.70;;;2.30;;
21697;SDS011;11010;49.548;11.926;2023-08-06T06:44:31;6.97;;;2.20;;
21697;SDS011;11010;49.548;11.926;2023-08-06T06:46:59;7.32;;;2.50;;
21697;SDS011;11010;49.548;11.926;2023-08-06T06:49:26;6.97;;;2.17;;
21697;SDS011;11010;49.548;11.926;2023-08-06T06:51:53;7.18;;;2.40;;
21697;SDS011;11010;49.548;11.926;2023-08-06T06:54:21;7.18;;;2.38;;
21697;SDS011;11010;49.548;11.926;2023-08-06T06:56:49;6.07;;;1.90;;
21697;SDS011;11010;49.548;11.926;2023-08-06T06:59:16;7.97;;;2.25;;
21697;SDS011;11010;49.548;11.926;2023-08-06T07:01:43;6.88;;;2.20;;
21697;SDS011;11010;49.548;11.926;2023-08-06T07:04:11;8.90;;;2.22;;
21697;SDS011;11010;49.548;11.926;2023-08-06T07:06:38;7.93;;;2.47;;
21697;SDS011;11010;49.548;11.926;2023-08-06T07:09:06;6.72;;;2.30;;
21697;SDS011;11010;49.548;11.926;2023-08-06T07:11:33;6.40;;;2.25;;
21697;SDS011;11010;49.548;11.926;2023-08-06T07:14:01;7.63;;;2.40;;
21697;SDS011;11010;49.548;11.926;2023-08-06T07:16:28;8.38;;;2.30;;
21697;SDS011;11010;49.548;11.926;2023-08-06T07:18:56;6.65;;;2.20;;
21697;SDS011;11010;49.548;11.926;2023-08-06T07:21:23;7.82;;;2.10;;
21697;SDS011;11010;49.548;11.926;2023-08-06T07:23:50;7.18;;;2.45;;
21697;SDS011;11010;49.548;11.926;2023-08-06T07:26:18;6.53;;;2.17;;
21697;SDS011;11010;49.548;11.926;2023-08-06T07:28:45;7.18;;;2.13;;
21697;SDS011;11010;49.548;11.926;2023-08-06T07:31:13;6.72;;;1.95;;
21697;SDS011;11010;49.548;11.926;2023-08-06T07:33:40;9.73;;;2.00;;
21697;SDS011;11010;49.548;11.926;2023-08-06T07:39:34;6.72;;;1.98;;
21697;SDS011;11010;49.548;11.926;2023-08-06T07:42:04;7.63;;;2.13;;
21697;SDS011;11010;49.548;11.926;2023-08-06T07:44:33;8.05;;;1.90;;
21697;SDS011;11010;49.548;11.926;2023-08-06T07:47:00;7.55;;;2.20;;
21697;SDS011;11010;49.548;11.926;2023-08-06T07:49:28;7.05;;;2.20;;
21697;SDS011;11010;49.548;11.926;2023-08-06T07:51:55;6.30;;;2.10;;
21697;SDS011;11010;49.548;11.926;2023-08-06T07:54:22;6.78;;;1.95;;
21697;SDS011;11010;49.548;11.926;2023-08-06T07:56:50;6.40;;;1.80;;
21697;SDS011;11010;49.548;11.926;2023-08-06T07:59:18;7.32;;;2.03;;
21697;SDS011;11010;49.548;11.926;2023-08-06T08:01:46;7.25;;;2.13;;
21697;SDS011;11010;49.548;11.926;2023-08-06T08:04:13;6.57;;;1.98;;
21697;SDS011;11010;49.548;11.926;2023-08-06T08:06:41;6.45;;;1.90;;
21697;SDS011;11010;49.548;11.926;2023-08-06T08:09:08;6.82;;;1.90;;
21697;SDS011;11010;49.548;11.926;2023-08-06T08:11:36;7.38;;;2.13;;
21697;SDS011;11010;49.548;11.926;2023-08-06T08:14:03;7.15;;;2.00;;
21697;SDS011;11010;49.548;11.926;2023-08-06T08:16:31;6.55;;;1.90;;
21697;SDS011;11010;49.548;11.926;2023-08-06T08:18:58;6.05;;;1.85;;
21697;SDS011;11010;49.548;11.926;2023-08-06T08:21:25;8.18;;;2.08;;
21697;SDS011;11010;49.548;11.926;2023-08-06T08:23:53;7.63;;;2.10;;
21697;SDS011;11010;49.548;11.926;2023-08-06T08:26:20;8.38;;;1.90;;
21697;SDS011;11010;49.548;11.926;2023-08-06T08:28:48;6.43;;;1.73;;
21697;SDS011;11010;49.548;11.926;2023-08-06T08:31:16;7.03;;;1.67;;
21697;SDS011;11010;49.548;11.926;2023-08-06T08:33:43;6.20;;;1.73;;
21697;SDS011;11010;49.548;11.926;2023-08-06T08:36:11;6.30;;;1.63;;
21697;SDS011;11010;49.548;11.926;2023-08-06T08:38:38;7.55;;;1.98;;
21697;SDS011;11010;49.548;11.926;2023-08-06T08:41:05;7.38;;;1.80;;
21697;SDS011;11010;49.548;11.926;2023-08-06T08:43:33;8.35;;;1.80;;
21697;SDS011;11010;49.548;11.926;2023-08-06T08:46:01;7.28;;;1.80;;
21697;SDS011;11010;49.548;11.926;2023-08-06T08:48:29;6.88;;;1.50;;
21697;SDS011;11010;49.548;11.926;2023-08-06T08:50:56;7.95;;;1.80;;
21697;SDS011;11010;49.548;11.926;2023-08-06T08:53:24;6.38;;;1.27;;
21697;SDS011;11010;49.548;11.926;2023-08-06T08:55:52;4.30;;;1.08;;
21697;SDS011;11010;49.548;11.926;2023-08-06T08:58:20;6.00;;;1.42;;
21697;SDS011;11010;49.548;11.926;2023-08-06T09:00:47;6.05;;;1.35;;
21697;SDS011;11010;49.548;11.926;2023-08-06T09:03:15;7.20;;;1.50;;
21697;SDS011;11010;49.548;11.926;2023-08-06T09:05:44;7.95;;;1.60;;
21697;SDS011;11010;49.548;11.926;2023-08-06T09:08:12;5.93;;;1.50;;
21697;SDS011;11010;49.548;11.926;2023-08-06T09:10:43;6.20;;;1.67;;
21697;SDS011;11010;49.548;11.926;2023-08-06T09:13:10;6.38;;;1.35;;
21697;SDS011;11010;49.548;11.926;2023-08-06T09:15:38;8.05;;;1.88;;
21697;SDS011;11010;49.548;11.926;2023-08-06T09:18:09;6.13;;;1.48;;
21697;SDS011;11010;49.548;11.926;2023-08-06T09:20:41;5.70;;;1.50;;
21697;SDS011;11010;49.548;11.926;2023-08-06T09:23:08;6.15;;;1.50;;
21697;SDS011;11010;49.548;11.926;2023-08-06T09:25:39;5.90;;;1.40;;
21697;SDS011;11010;49.548;11.926;2023-08-06T09:28:07;5.70;;;1.33;;
21697;SDS011;11010;49.548;11.926;2023-08-06T09:30:37;6.43;;;1.38;;
21697;SDS011;11010;49.548;11.926;2023-08-06T09:33:08;6.55;;;1.40;;
21697;SDS011;11010;49.548;11.926;2023-08-06T09:35:42;5.38;;;1.50;;
21697;SDS011;11010;49.548;11.926;2023-08-06T09:38:10;5.03;;;1.30;;
21697;SDS011;11010;49.548;11.926;2023-08-06T09:40:38;6.50;;;1.30;;
21697;SDS011;11010;49.548;11.926;2023-08-06T09:43:06;5.22;;;1.40;;
21697;SDS011;11010;49.548;11.926;2023-08-06T09:45:36;5.13;;;1.30;;
21697;SDS011;11010;49.548;11.926;2023-08-06T09:48:05;6.55;;;1.40;;
21697;SDS011;11010;49.548;11.926;2023-08-06T09:50:34;5.10;;;1.40;;
21697;SDS011;11010;49.548;11.926;2023-08-06T09:53:04;6.43;;;1.40;;
21697;SDS011;11010;49.548;11.926;2023-08-06T09:55:32;3.85;;;1.10;;
21697;SDS011;11010;49.548;11.926;2023-08-06T09:57:59;5.20;;;1.25;;
21697;SDS011;11010;49.548;11.926;2023-08-06T10:00:27;4.85;;;1.30;;
21697;SDS011;11010;49.548;11.926;2023-08-06T10:02:55;5.88;;;1.48;;
21697;SDS011;11010;49.548;11.926;2023-08-06T10:05:27;5.55;;;1.40;;
21697;SDS011;11010;49.548;11.926;2023-08-06T10:07:54;4.70;;;1.10;;
21697;SDS011;11010;49.548;11.926;2023-08-06T10:10:22;3.88;;;1.00;;
21697;SDS011;11010;49.548;11.926;2023-08-06T10:12:50;2.40;;;0.80;;
21697;SDS011;11010;49.548;11.926;2023-08-06T10:15:28;2.72;;;0.90;;
21697;SDS011;11010;49.548;11.926;2023-08-06T10:17:57;4.03;;;0.90;;
21697;SDS011;11010;49.548;11.926;2023-08-06T10:20:25;4.05;;;1.00;;
21697;SDS011;11010;49.548;11.926;2023-08-06T10:23:02;4.07;;;1.00;;
21697;SDS011;11010;49.548;11.926;2023-08-06T10:25:30;4.20;;;1.08;;
21697;SDS011;11010;49.548;11.926;2023-08-06T10:27:59;4.60;;;0.90;;
21697;SDS011;11010;49.548;11.926;2023-08-06T10:30:30;5.85;;;1.10;;
21697;SDS011;11010;49.548;11.926;2023-08-06T10:32:58;3.67;;;1.00;;
21697;SDS011;11010;49.548;11.926;2023-08-06T10:38:09;4.18;;;1.00;;
21697;SDS011;11010;49.548;11.926;2023-08-06T10:40:39;4.53;;;0.88;;
21697;SDS011;11010;49.548;11.926;2023-08-06T10:43:07;2.58;;;0.80;;
21697;SDS011;11010;49.548;11.926;2023-08-06T10:45:37;3.55;;;0.93;;
21697;SDS011;11010;49.548;11.926;2023-08-06T10:48:04;1.42;;;0.65;;
21697;SDS011;11010;49.548;11.926;2023-08-06T10:50:32;2.42;;;0.75;;
21697;SDS011;11010;49.548;11.926;2023-08-06T10:53:03;1.27;;;0.65;;
21697;SDS011;11010;49.548;11.926;2023-08-06T10:55:32;1.23;;;0.60;;
21697;SDS011;11010;49.548;11.926;2023-08-06T10:57:59;3.63;;;0.80;;
21697;SDS011;11010;49.548;11.926;2023-08-06T11:00:27;2.25;;;0.70;;
21697;SDS011;11010;49.548;11.926;2023-08-06T11:02:54;1.77;;;0.70;;
21697;SDS011;11010;49.548;11.926;2023-08-06T11:05:22;1.25;;;0.50;;
21697;SDS011;11010;49.548;11.926;2023-08-06T11:07:49;3.22;;;0.60;;
21697;SDS011;11010;49.548;11.926;2023-08-06T11:10:18;2.30;;;0.60;;
21697;SDS011;11010;49.548;11.926;2023-08-06T11:12:45;0.88;;;0.50;;
21697;SDS011;11010;49.548;11.926;2023-08-06T11:15:13;1.05;;;0.60;;
21697;SDS011;11010;49.548;11.926;2023-08-06T11:17:40;1.58;;;0.60;;
21697;SDS011;11010;49.548;11.926;2023-08-06T11:20:08;2.47;;;0.57;;
21697;SDS011;11010;49.548;11.926;2023-08-06T11:22:36;2.10;;;0.63;;
21697;SDS011;11010;49.548;11.926;2023-08-06T11:25:05;0.90;;;0.50;;
21697;SDS011;11010;49.548;11.926;2023-08-06T11:27:33;1.85;;;0.50;;
21697;SDS011;11010;49.548;11.926;2023-08-06T11:30:00;1.23;;;0.60;;
21697;SDS011;11010;49.548;11.926;2023-08-06T11:32:28;1.23;;;0.60;;
21697;SDS011;11010;49.548;11.926;2023-08-06T11:34:55;1.65;;;0.60;;
21697;SDS011;11010;49.548;11.926;2023-08-06T11:37:23;2.83;;;0.65;;
21697;SDS011;11010;49.548;11.926;2023-08-06T11:39:51;2.25;;;0.70;;
21697;SDS011;11010;49.548;11.926;2023-08-06T11:42:19;1.25;;;0.63;;
21697;SDS011;11010;49.548;11.926;2023-08-06T11:44:47;1.95;;;0.68;;
21697;SDS011;11010;49.548;11.926;2023-08-06T11:47:15;5.15;;;0.95;;
21697;SDS011;11010;49.548;11.926;2023-08-06T11:49:44;2.08;;;0.70;;
21697;SDS011;11010;49.548;11.926;2023-08-06T11:54:46;1.65;;;0.65;;
21697;SDS011;11010;49.548;11.926;2023-08-06T11:57:13;2.00;;;0.70;;
21697;SDS011;11010;49.548;11.926;2023-08-06T11:59:43;3.00;;;0.70;;
21697;SDS011;11010;49.548;11.926;2023-08-06T12:02:11;1.58;;;0.60;;
21697;SDS011;11010;49.548;11.926;2023-08-06T12:04:57;2.38;;;0.50;;
21697;SDS011;11010;49.548;11.926;2023-08-06T12:07:26;2.45;;;0.70;;
21697;SDS011;11010;49.548;11.926;2023-08-06T12:09:54;2.17;;;0.70;;
21697;SDS011;11010;49.548;11.926;2023-08-06T12:12:21;1.50;;;0.60;;
21697;SDS011;11010;49.548;11.926;2023-08-06T12:14:49;1.63;;;0.60;;
21697;SDS011;11010;49.548;11.926;2023-08-06T12:17:16;2.35;;;0.70;;
21697;SDS011;11010;49.548;11.926;2023-08-06T12:19:44;1.80;;;0.60;;
21697;SDS011;11010;49.548;11.926;2023-08-06T12:22:13;1.13;;;0.50;;
21697;SDS011;11010;49.548;11.926;2023-08-06T12:24:41;1.58;;;0.60;;
21697;SDS011;11010;49.548;11.926;2023-08-06T12:27:09;1.83;;;0.70;;
21697;SDS011;11010;49.548;11.926;2023-08-06T12:29:40;1.67;;;0.70;;
21697;SDS011;11010;49.548;11.926;2023-08-06T12:32:12;2.30;;;0.60;;
21697;SDS011;11010;49.548;11.926;2023-08-06T12:34:43;1.48;;;0.60;;
21697;SDS011;11010;49.548;11.926;2023-08-06T12:37:18;1.98;;;0.68;;
21697;SDS011;11010;49.548;11.926;2023-08-06T12:39:46;0.93;;;0.52;;
21697;SDS011;11010;49.548;11.926;2023-08-06T12:42:14;1.75;;;0.60;;
21697;SDS011;11010;49.548;11.926;2023-08-06T12:44:41;0.38;;;0.38;;
21697;SDS011;11010;49.548;11.926;2023-08-06T12:47:08;1.35;;;0.63;;
21697;SDS011;11010;49.548;11.926;2023-08-06T12:49:36;0.60;;;0.43;;
21697;SDS011;11010;49.548;11.926;2023-08-06T12:52:05;0.77;;;0.50;;
21697;SDS011;11010;49.548;11.926;2023-08-06T12:54:34;0.40;;;0.40;;
21697;SDS011;11010;49.548;11.926;2023-08-06T12:57:03;2.28;;;0.63;;
21697;SDS011;11010;49.548;11.926;2023-08-06T12:59:31;1.48;;;0.60;;
21697;SDS011;11010;49.548;11.926;2023-08-06T13:02:00;1.02;;;0.52;;
21697;SDS011;11010;49.548;11.926;2023-08-06T13:04:27;0.90;;;0.50;;
21697;SDS011;11010;49.548;11.926;2023-08-06T13:06:55;0.80;;;0.40;;
21697;SDS011;11010;49.548;11.926;2023-08-06T13:09:22;0.77;;;0.43;;
21697;SDS011;11010;49.548;11.926;2023-08-06T13:11:51;2.83;;;0.60;;
21697;SDS011;11010;49.548;11.926;2023-08-06T13:14:19;0.45;;;0.40;;
21697;SDS011;11010;49.548;11.926;2023-08-06T13:16:47;1.38;;;0.50;;
21697;SDS011;11010;49.548;11.926;2023-08-06T13:19:15;0.85;;;0.50;;
21697;SDS011;11010;49.548;11.926;2023-08-06T13:24:19;2.47;;;0.70;;
21697;SDS011;11010;49.548;11.926;2023-08-06T13:26:46;1.40;;;0.50;;
21697;SDS011;11010;49.548;11.926;2023-08-06T13:29:14;1.02;;;0.50;;
21697;SDS011;11010;49.548;11.926;2023-08-06T13:31:41;1.02;;;0.47;;
21697;SDS011;11010;49.548;11.926;2023-08-06T13:34:08;4.93;;;0.75;;
21697;SDS011;11010;49.548;11.926;2023-08-06T13:36:36;2.75;;;0.60;;
21697;SDS011;11010;49.548;11.926;2023-08-06T13:39:03;1.55;;;0.65;;
21697;SDS011;11010;49.548;11.926;2023-08-06T13:41:31;0.80;;;0.50;;
21697;SDS011;11010;49.548;11.926;2023-08-06T13:43:59;1.60;;;0.60;;
21697;SDS011;11010;49.548;11.926;2023-08-06T13:46:26;2.53;;;0.70;;
21697;SDS011;11010;49.548;11.926;2023-08-06T13:48:54;0.45;;;0.40;;
21697;SDS011;11010;49.548;11.926;2023-08-06T13:51:21;1.02;;;0.57;;
21697;SDS011;11010;49.548;11.926;2023-08-06T13:53:49;0.70;;;0.50;;
21697;SDS011;11010;49.548;11.926;2023-08-06T13:56:18;1.08;;;0.60;;
21697;SDS011;11010;49.548;11.926;2023-08-06T13:58:46;1.27;;;0.60;;
21697;SDS011;11010;49.548;11.926;2023-08-06T14:01:16;1.85;;;0.60;;
21697;SDS011;11010;49.548;11.926;2023-08-06T14:03:45;1.13;;;0.55;;
21697;SDS011;11010;49.548;11.926;2023-08-06T14:06:13;1.65;;;0.63;;
21697;SDS011;11010;49.548;11.926;2023-08-06T14:08:40;1.17;;;0.65;;
21697;SDS011;11010;49.548;11.926;2023-08-06T14:11:08;0.65;;;0.50;;
21697;SDS011;11010;49.548;11.926;2023-08-06T14:13:37;1.85;;;0.60;;
21697;SDS011;11010;49.548;11.926;2023-08-06T14:16:04;0.95;;;0.60;;
21697;SDS011;11010;49.548;11.926;2023-08-06T14:18:32;1.05;;;0.50;;
21697;SDS011;11010;49.548;11.926;2023-08-06T14:21:00;0.50;;;0.40;;
21697;SDS011;11010;49.548;11.926;2023-08-06T14:23:28;1.42;;;0.50;;
21697;SDS011;11010;49.548;11.926;2023-08-06T14:25:55;1.65;;;0.50;;
21697;SDS011;11010;49.548;11.926;2023-08-06T14:28:22;1.08;;;0.57;;
21697;SDS011;11010;49.548;11.926;2023-08-06T14:30:50;1.85;;;0.60;;
21697;SDS011;11010;49.548;11.926;2023-08-06T14:33:18;0.85;;;0.50;;
21697;SDS011;11010;49.548;11.926;2023-08-06T14:35:53;0.40;;;0.40;;
21697;SDS011;11010;49.548;11.926;2023-08-06T14:38:20;0.80;;;0.50;;
21697;SDS011;11010;49.548;11.926;2023-08-06T14:40:48;1.20;;;0.60;;
21697;SDS011;11010;49.548;11.926;2023-08-06T14:43:16;1.45;;;0.52;;
21697;SDS011;11010;49.548;11.926;2023-08-06T14:45:44;0.40;;;0.40;;
21697;SDS011;11010;49.548;11.926;2023-08-06T14:48:12;1.55;;;0.47;;
21697;SDS011;11010;49.548;11.926;2023-08-06T14:50:40;0.93;;;0.43;;
21697;SDS011;11010;49.548;11.926;2023-08-06T14:53:07;1.10;;;0.40;;
21697;SDS011;11010;49.548;11.926;2023-08-06T14:55:37;0.47;;;0.47;;
21697;SDS011;11010;49.548;11.926;2023-08-06T14:58:04;0.55;;;0.47;;